createdAt,value
2023-05-24T00:00:55.119Z,108.45
2023-05-24T00:03:32.312Z,95.00
2023-05-24T00:06:09.345Z,82.38
2023-05-24T00:08:44.179Z,92.03
2023-05-24T00:11:22.814Z,82.70
2023-05-24T00:13:57.654Z,74.60
2023-05-24T00:16:37.124Z,77.22
2023-05-24T00:19:13.196Z,71.93
2023-05-24T00:21:47.610Z,74.13
2023-05-24T00:24:22.578Z,68.65
2023-05-24T00:26:59.460Z,65.40
2023-05-24T00:29:34.971Z,75.97
2023-05-24T00:32:12.725Z,68.27
2023-05-24T00:34:54.252Z,65.83
2023-05-24T00:37:29.921Z,72.27
2023-05-24T00:40:06.667Z,68.73
2023-05-24T00:42:46.238Z,73.13
2023-05-24T00:45:24.792Z,75.00
2023-05-24T00:48:02.265Z,70.50
2023-05-24T00:50:39.867Z,73.13
2023-05-24T00:53:16.512Z,70.77
2023-05-24T00:55:53.723Z,74.27
2023-05-24T00:58:32.992Z,68.73
2023-05-24T01:01:10.430Z,67.00
2023-05-24T01:03:49.863Z,75.60
2023-05-24T01:06:26.586Z,68.67
2023-05-24T01:09:26.757Z,70.60
2023-05-24T01:12:17.714Z,75.53
2023-05-24T01:15:04.608Z,76.60
2023-05-24T01:17:47.668Z,74.70
2023-05-24T01:20:33.115Z,83.07
2023-05-24T01:23:23.749Z,74.83
2023-05-24T01:26:27.246Z,76.13
2023-05-24T01:29:11.157Z,77.60
2023-05-24T01:31:47.640Z,78.23
2023-05-24T01:34:26.811Z,73.23
2023-05-24T01:37:02.877Z,64.57
2023-05-24T01:39:38.286Z,77.33
2023-05-24T01:42:30.616Z,74.80
2023-05-24T01:45:19.450Z,75.77
2023-05-24T01:48:21.354Z,72.40
2023-05-24T01:51:08.040Z,77.00
2023-05-24T01:53:52.095Z,64.97
2023-05-24T01:56:30.600Z,72.88
2023-05-24T01:59:07.936Z,71.80
2023-05-24T02:01:45.604Z,69.28
2023-05-24T02:04:30.726Z,57.95
2023-05-24T02:07:07.636Z,70.28
2023-05-24T02:09:44.017Z,63.75
2023-05-24T02:12:22.192Z,67.57
2023-05-24T02:14:58.909Z,63.30
2023-05-24T02:17:38.606Z,62.20
2023-05-24T02:20:18.871Z,68.28
2023-05-24T02:22:54.478Z,65.30
2023-05-24T02:25:29.938Z,68.38
2023-05-24T02:28:05.404Z,74.03
2023-05-24T02:30:41.913Z,68.93
2023-05-24T02:33:19.315Z,71.68
2023-05-24T02:35:55.180Z,76.53
2023-05-24T02:38:30.510Z,74.65
2023-05-24T02:41:06.815Z,74.47
2023-05-24T02:43:43.046Z,71.15
2023-05-24T02:46:20.228Z,83.25
2023-05-24T02:49:00.644Z,84.45
2023-05-24T02:51:38.965Z,75.57
2023-05-24T02:54:14.605Z,81.57
2023-05-24T02:56:52.155Z,84.38
2023-05-24T02:59:27.576Z,80.53
2023-05-24T03:02:07.685Z,84.87
2023-05-24T03:04:46.768Z,80.67
2023-05-24T03:07:24.047Z,82.35
2023-05-24T03:09:59.951Z,90.20
2023-05-24T03:12:36.540Z,79.22
2023-05-24T03:15:16.651Z,80.00
2023-05-24T03:17:53.900Z,76.50
2023-05-24T03:20:33.596Z,84.10
2023-05-24T03:23:12.951Z,78.30
2023-05-24T03:25:51.577Z,88.07
2023-05-24T03:28:33.178Z,81.05
2023-05-24T03:31:09.875Z,84.30
2023-05-24T03:33:46.019Z,69.97
2023-05-24T03:36:24.663Z,67.35
2023-05-24T03:39:02.875Z,64.00
2023-05-24T03:41:43.302Z,65.13
2023-05-24T03:44:21.540Z,66.60
2023-05-24T03:47:01.619Z,55.53
2023-05-24T03:49:38.770Z,61.47
2023-05-24T03:52:22.072Z,60.42
2023-05-24T03:54:58.051Z,66.32
2023-05-24T03:57:36.276Z,65.53
2023-05-24T04:00:15.329Z,66.13
2023-05-24T04:02:57.276Z,67.60
2023-05-24T04:05:37.655Z,57.97
2023-05-24T04:08:17.583Z,62.58
2023-05-24T04:10:56.947Z,63.63
2023-05-24T04:13:35.554Z,59.28
2023-05-24T04:16:15.765Z,78.20
2023-05-24T04:18:53.589Z,83.95
2023-05-24T04:21:34.459Z,81.40
2023-05-24T04:24:17.692Z,69.87
2023-05-24T04:26:55.849Z,83.00
2023-05-24T04:29:37.224Z,68.57
2023-05-24T04:32:31.244Z,79.00
2023-05-24T04:35:15.891Z,70.63
2023-05-24T04:37:55.799Z,71.43
2023-05-24T04:40:35.756Z,61.33
2023-05-24T04:43:13.588Z,60.70
2023-05-24T04:45:55.093Z,75.78
2023-05-24T04:48:32.562Z,54.17
2023-05-24T04:51:12.722Z,55.67
2023-05-24T04:53:54.038Z,57.28
2023-05-24T04:56:32.095Z,62.20
2023-05-24T04:59:19.434Z,63.53
2023-05-24T05:01:58.789Z,60.70
2023-05-24T05:04:40.111Z,68.40
2023-05-24T05:07:30.651Z,63.30
2023-05-24T05:10:15.242Z,61.17
2023-05-24T05:12:58.285Z,65.75
2023-05-24T05:15:41.565Z,66.88
2023-05-24T05:18:24.844Z,69.10
2023-05-24T05:21:03.706Z,67.43
2023-05-24T05:23:42.659Z,65.45
2023-05-24T05:26:22.485Z,67.63
2023-05-24T05:28:59.582Z,73.93
2023-05-24T05:31:36.588Z,68.60
2023-05-24T05:34:13.020Z,60.13
2023-05-24T05:36:52.975Z,70.40
2023-05-24T05:39:27.912Z,69.80
2023-05-24T05:42:08.492Z,64.55
2023-05-24T05:45:00.770Z,74.35
2023-05-24T05:47:37.963Z,72.13
2023-05-24T05:50:14.660Z,67.40
2023-05-24T05:52:50.895Z,63.78
2023-05-24T05:55:28.089Z,64.47
2023-05-24T05:58:03.875Z,63.05
2023-05-24T06:00:42.987Z,60.75
2023-05-24T06:03:22.681Z,61.97
2023-05-24T06:05:59.172Z,64.93
2023-05-24T06:08:36.743Z,67.60
2023-05-24T06:11:14.225Z,63.28
2023-05-24T06:13:49.419Z,71.97
2023-05-24T06:16:30.446Z,64.43
2023-05-24T06:19:06.941Z,64.53
2023-05-24T06:21:45.380Z,59.92
2023-05-24T06:24:23.337Z,60.50
2023-05-24T06:26:59.990Z,63.37
2023-05-24T06:29:36.638Z,69.47
2023-05-24T06:32:19.910Z,72.70
2023-05-24T06:34:55.951Z,67.27
2023-05-24T06:37:32.588Z,65.00
2023-05-24T06:40:08.881Z,63.90
2023-05-24T06:42:51.594Z,72.33
2023-05-24T06:45:34.497Z,63.50
2023-05-24T06:48:27.102Z,73.90
2023-05-24T06:51:05.826Z,67.57
2023-05-24T06:53:43.757Z,66.30
2023-05-24T06:56:24.836Z,67.23
2023-05-24T06:59:02.521Z,69.53
2023-05-24T07:01:41.274Z,65.97
2023-05-24T07:04:22.199Z,76.13
2023-05-24T07:06:59.941Z,71.23
2023-05-24T07:09:39.716Z,73.40
2023-05-24T07:12:17.561Z,69.13
2023-05-24T07:14:55.655Z,68.93
2023-05-24T07:17:31.688Z,69.90
2023-05-24T07:20:14.399Z,71.57
2023-05-24T07:22:51.530Z,79.07
2023-05-24T07:25:29.085Z,71.37
2023-05-24T07:28:05.479Z,71.37
2023-05-24T07:30:40.791Z,75.97
2023-05-24T07:33:18.342Z,65.70
2023-05-24T07:35:57.192Z,71.73
2023-05-24T07:38:35.214Z,62.13
2023-05-24T07:41:12.460Z,66.03
2023-05-24T07:43:51.369Z,67.17
2023-05-24T07:46:28.230Z,63.73
2023-05-24T07:49:05.931Z,68.70
2023-05-24T07:51:47.159Z,67.93
2023-05-24T07:54:23.481Z,78.20
2023-05-24T07:56:59.075Z,75.27
2023-05-24T07:59:34.389Z,73.57
2023-05-24T08:02:12.950Z,80.13
2023-05-24T08:04:48.188Z,80.50
2023-05-24T08:07:31.620Z,71.60
2023-05-24T08:10:09.031Z,81.33
2023-05-24T08:12:46.614Z,80.87
2023-05-24T08:15:22.723Z,90.87
2023-05-24T08:17:59.608Z,82.10
2023-05-24T08:20:37.786Z,92.63
2023-05-24T08:23:23.173Z,79.30
2023-05-24T08:26:01.267Z,85.93
2023-05-24T08:28:38.859Z,83.77
2023-05-24T08:31:16.525Z,83.67
2023-05-24T08:33:57.782Z,88.30
2023-05-24T08:36:34.546Z,79.43
2023-05-24T08:39:20.062Z,84.47
2023-05-24T08:42:08.695Z,85.67
2023-05-24T08:45:01.570Z,91.67
2023-05-24T08:47:40.977Z,86.27
2023-05-24T08:50:19.931Z,87.00
2023-05-24T08:52:58.486Z,96.63
2023-05-24T08:55:37.973Z,85.60
2023-05-24T08:58:14.410Z,89.47
2023-05-24T09:00:50.042Z,94.37
2023-05-24T09:03:36.838Z,94.83
2023-05-24T09:06:22.520Z,90.80
2023-05-24T09:09:01.197Z,94.63
2023-05-24T09:11:41.101Z,82.60
2023-05-24T09:14:18.672Z,92.40
2023-05-24T09:16:54.125Z,92.00
2023-05-24T09:19:33.013Z,89.73
2023-05-24T09:22:08.344Z,85.80
2023-05-24T09:24:47.527Z,99.97
2023-05-24T09:27:26.985Z,83.90
2023-05-24T09:30:07.164Z,89.10
2023-05-24T09:32:44.010Z,88.40
2023-05-24T09:35:21.200Z,103.80
2023-05-24T09:37:58.760Z,91.13
2023-05-24T09:40:44.028Z,90.10
2023-05-24T09:43:28.188Z,89.83
2023-05-24T09:46:07.463Z,96.40
2023-05-24T09:48:47.784Z,89.17
2023-05-24T09:51:25.443Z,108.10
2023-05-24T09:54:07.312Z,98.77
2023-05-24T09:56:49.019Z,107.40
2023-05-24T09:59:37.205Z,108.90
2023-05-24T10:02:19.836Z,104.27
2023-05-24T10:05:07.425Z,117.50
2023-05-24T10:07:51.432Z,106.73
2023-05-24T10:10:28.933Z,102.97
2023-05-24T10:13:10.462Z,109.00
2023-05-24T10:15:56.437Z,106.97
2023-05-24T10:18:35.199Z,111.00
2023-05-24T10:21:14.077Z,113.50
2023-05-24T10:24:00.574Z,116.13
2023-05-24T10:26:42.972Z,114.73
2023-05-24T10:29:41.753Z,106.03
2023-05-24T10:32:26.630Z,119.33
2023-05-24T10:35:03.506Z,123.63
2023-05-24T10:37:39.780Z,114.73
2023-05-24T10:40:29.107Z,112.20
2023-05-24T10:43:14.066Z,118.73
2023-05-24T10:45:56.272Z,118.63
2023-05-24T10:48:47.892Z,110.80
2023-05-24T10:51:42.085Z,114.30
2023-05-24T10:54:34.771Z,107.37
2023-05-24T10:57:19.945Z,104.43
2023-05-24T10:59:57.350Z,103.10
2023-05-24T11:02:39.757Z,99.17
2023-05-24T11:05:23.761Z,98.07
2023-05-24T11:08:09.087Z,97.20
2023-05-24T11:10:55.090Z,98.80
2023-05-24T11:13:38.965Z,94.03
2023-05-24T11:16:16.422Z,90.53
2023-05-24T11:19:16.707Z,89.67
2023-05-24T11:22:09.396Z,90.73
2023-05-24T11:24:49.191Z,96.03
2023-05-24T11:27:30.387Z,94.53
2023-05-24T11:30:09.995Z,93.60
2023-05-24T11:32:52.420Z,90.17
2023-05-24T11:35:36.332Z,84.73
2023-05-24T11:38:22.773Z,87.10
2023-05-24T11:41:03.524Z,82.23
2023-05-24T11:43:45.949Z,96.53
2023-05-24T11:46:26.738Z,90.37
2023-05-24T11:49:07.477Z,90.80
2023-05-24T11:51:46.844Z,88.87
2023-05-24T11:54:29.294Z,86.57
2023-05-24T11:57:12.228Z,78.87
2023-05-24T11:59:59.417Z,83.87
2023-05-24T12:02:39.070Z,86.53
2023-05-24T12:05:15.893Z,78.67
2023-05-24T12:07:57.966Z,77.73
2023-05-24T12:10:49.328Z,80.83
2023-05-24T12:13:32.540Z,79.37
2023-05-24T12:16:18.331Z,83.17
2023-05-24T12:19:05.805Z,79.17
2023-05-24T12:21:53.969Z,76.47
2023-05-24T12:24:38.800Z,78.23
2023-05-24T12:27:26.179Z,87.33
2023-05-24T12:30:13.224Z,77.33
2023-05-24T12:32:55.316Z,83.53
2023-05-24T12:35:40.277Z,81.97
2023-05-24T12:38:27.090Z,75.40
2023-05-24T12:41:13.087Z,76.57
2023-05-24T12:43:54.624Z,77.83
2023-05-24T12:46:34.547Z,76.97
2023-05-24T12:49:14.106Z,74.67
2023-05-24T12:51:56.113Z,73.00
2023-05-24T12:54:40.378Z,72.10
2023-05-24T12:57:29.052Z,69.27
2023-05-24T13:00:18.569Z,81.13
2023-05-24T13:03:00.178Z,72.40
2023-05-24T13:05:39.452Z,84.23
2023-05-24T13:08:24.050Z,74.50
2023-05-24T13:14:18.036Z,81.97
2023-05-24T13:17:03.246Z,79.73
2023-05-24T13:19:53.525Z,90.70
2023-05-24T13:22:39.596Z,80.80
2023-05-24T13:25:24.885Z,81.70
2023-05-24T13:28:14.544Z,85.83
2023-05-24T13:31:07.272Z,84.13
2023-05-24T13:33:59.425Z,84.37
2023-05-24T13:36:42.675Z,84.93
2023-05-24T13:39:25.430Z,84.93
2023-05-24T13:42:14.447Z,82.90
2023-05-24T13:44:53.674Z,82.37
2023-05-24T13:47:44.010Z,83.00
2023-05-24T13:50:32.120Z,90.87
2023-05-24T13:53:27.176Z,92.00
2023-05-24T13:56:07.250Z,84.40
2023-05-24T13:59:09.508Z,81.30
2023-05-24T14:01:52.609Z,79.47
2023-05-24T14:04:37.096Z,80.20
2023-05-24T14:07:23.190Z,76.00
2023-05-24T14:10:10.407Z,82.07
2023-05-24T14:13:20.778Z,74.00
2023-05-24T14:16:04.663Z,74.73
2023-05-24T14:18:56.758Z,79.47
2023-05-24T14:21:43.524Z,81.67
2023-05-24T14:24:25.283Z,75.63
2023-05-24T14:27:07.456Z,79.63
2023-05-24T14:29:50.203Z,80.53
2023-05-24T14:32:33.533Z,81.90
2023-05-24T14:35:22.015Z,80.63
2023-05-24T14:38:08.264Z,82.27
2023-05-24T14:41:01.803Z,79.73
2023-05-24T14:43:47.615Z,85.23
2023-05-24T14:46:28.919Z,74.70
2023-05-24T14:49:10.994Z,85.40
2023-05-24T14:51:54.960Z,76.03
2023-05-24T14:54:41.349Z,71.43
2023-05-24T14:57:24.960Z,81.03
2023-05-24T15:00:14.037Z,79.90
2023-05-24T15:02:54.886Z,82.80
2023-05-24T15:05:47.178Z,76.10
2023-05-24T15:08:29.076Z,76.40
2023-05-24T15:11:23.586Z,74.37
2023-05-24T15:14:10.963Z,77.67
2023-05-24T15:16:49.459Z,75.40
2023-05-24T15:19:27.651Z,79.87
2023-05-24T15:22:05.398Z,80.37
2023-05-24T15:24:55.371Z,75.60
2023-05-24T15:27:47.095Z,81.53
2023-05-24T15:30:30.854Z,72.63
2023-05-24T15:33:19.791Z,74.93
2023-05-24T15:36:02.606Z,75.40
2023-05-24T15:38:50.653Z,70.33
2023-05-24T15:41:28.895Z,80.57
2023-05-24T15:44:16.418Z,76.97
2023-05-24T15:46:57.907Z,74.80
2023-05-24T15:49:36.815Z,74.83
2023-05-24T15:52:22.281Z,78.30
2023-05-24T15:55:05.379Z,80.57
2023-05-24T15:57:43.189Z,78.50
2023-05-24T16:00:32.890Z,78.53
2023-05-24T16:03:11.372Z,77.70
2023-05-24T16:05:54.589Z,74.37
2023-05-24T16:08:37.190Z,76.63
2023-05-24T16:11:15.793Z,74.60
2023-05-24T16:13:53.689Z,79.30
2023-05-24T16:16:42.084Z,79.40
2023-05-24T16:19:21.721Z,78.30
2023-05-24T16:22:11.817Z,82.07
2023-05-24T16:24:51.160Z,69.87
2023-05-24T16:27:35.943Z,74.50
2023-05-24T16:30:17.351Z,79.67
2023-05-24T16:33:02.345Z,79.67
2023-05-24T16:35:42.809Z,78.87
2023-05-24T16:38:23.330Z,84.53
2023-05-24T16:41:02.998Z,84.50
2023-05-24T16:43:52.344Z,77.57
2023-05-24T16:46:31.769Z,75.47
2023-05-24T16:49:17.357Z,81.90
2023-05-24T16:51:58.161Z,81.87
2023-05-24T16:54:36.900Z,82.20
2023-05-24T16:57:14.475Z,78.07
2023-05-24T16:59:56.346Z,77.97
2023-05-24T17:02:35.037Z,75.33
2023-05-24T17:05:16.969Z,75.13
2023-05-24T17:07:55.234Z,70.87
2023-05-24T17:10:32.205Z,83.87
2023-05-24T17:13:09.108Z,76.50
2023-05-24T17:15:46.312Z,75.00
2023-05-24T17:18:29.374Z,78.83
2023-05-24T17:21:14.461Z,79.50
2023-05-24T17:23:50.672Z,69.20
2023-05-24T17:26:29.553Z,75.83
2023-05-24T17:29:04.998Z,69.40
2023-05-24T17:31:40.556Z,70.10
2023-05-24T17:34:16.843Z,71.00
2023-05-24T17:36:58.067Z,76.77
2023-05-24T17:39:34.676Z,76.93
2023-05-24T17:42:12.331Z,71.37
2023-05-24T17:44:47.863Z,76.13
2023-05-24T17:47:26.907Z,69.97
2023-05-24T17:50:06.402Z,71.33
2023-05-24T17:52:50.285Z,75.93
2023-05-24T17:55:27.756Z,71.73
2023-05-24T17:58:04.604Z,73.17
2023-05-24T18:00:47.285Z,72.53
2023-05-24T18:03:24.436Z,65.97
2023-05-24T18:06:00.462Z,77.23
2023-05-24T18:08:40.166Z,75.03
2023-05-24T18:11:15.931Z,73.23
2023-05-24T18:13:53.709Z,67.37
2023-05-24T18:16:28.970Z,68.53
2023-05-24T18:19:08.291Z,68.53
2023-05-24T18:21:45.250Z,69.37
2023-05-24T18:24:23.653Z,73.23
2023-05-24T18:27:01.171Z,75.23
2023-05-24T18:29:38.466Z,70.13
2023-05-24T18:32:14.388Z,68.47
2023-05-24T18:34:49.722Z,73.07
2023-05-24T18:37:25.679Z,70.67
2023-05-24T18:40:07.621Z,75.53
2023-05-24T18:42:44.793Z,72.30
2023-05-24T18:45:20.731Z,66.90
2023-05-24T18:47:55.621Z,72.67
2023-05-24T18:50:30.318Z,68.83
2023-05-24T18:53:04.664Z,70.30
2023-05-24T18:55:45.310Z,80.47
2023-05-24T18:58:21.128Z,72.77
2023-05-24T19:00:59.349Z,72.73
2023-05-24T19:03:33.479Z,71.77
2023-05-24T19:06:08.533Z,70.03
2023-05-24T19:08:43.480Z,69.80
2023-05-24T19:11:22.083Z,70.40
2023-05-24T19:13:56.849Z,78.37
2023-05-24T19:16:31.907Z,72.00
2023-05-24T19:19:06.441Z,72.33
2023-05-24T19:21:43.008Z,71.30
2023-05-24T19:24:17.089Z,68.97
2023-05-24T19:26:54.204Z,70.90
2023-05-24T19:29:29.158Z,69.23
2023-05-24T19:32:02.816Z,66.27
2023-05-24T19:34:38.674Z,68.97
2023-05-24T19:37:13.178Z,74.63
2023-05-24T19:40:43.336Z,70.80
2023-05-24T19:43:19.603Z,74.27
2023-05-24T19:45:55.444Z,75.37
2023-05-24T19:48:29.943Z,73.10
2023-05-24T19:51:05.701Z,76.43
2023-05-24T19:53:45.204Z,79.13
2023-05-24T19:56:20.895Z,78.60
2023-05-24T19:59:17.594Z,74.87
2023-05-24T20:01:54.696Z,77.57
2023-05-24T20:04:31.438Z,82.07
2023-05-24T20:07:06.525Z,82.83
2023-05-24T20:09:44.826Z,73.60
2023-05-24T20:12:18.143Z,77.93
2023-05-24T20:14:56.419Z,74.93
2023-05-24T20:17:31.652Z,81.07
2023-05-24T20:20:08.347Z,80.07
2023-05-24T20:22:44.116Z,78.30
2023-05-24T20:25:19.639Z,74.37
2023-05-24T20:27:53.789Z,79.43
2023-05-24T20:30:31.165Z,72.07
2023-05-24T20:33:06.347Z,81.43
2023-05-24T20:35:41.898Z,84.03
2023-05-24T20:38:16.983Z,77.03
2023-05-24T20:40:53.735Z,84.07
2023-05-24T20:43:27.966Z,76.30
2023-05-24T20:46:07.192Z,77.67
2023-05-24T20:48:44.278Z,78.87
2023-05-24T20:51:18.975Z,82.00
2023-05-24T20:53:55.130Z,78.63
2023-05-24T20:56:31.326Z,74.10
2023-05-24T20:59:05.785Z,76.67
2023-05-24T21:01:41.591Z,77.80
2023-05-24T21:04:18.900Z,79.13
2023-05-24T21:06:55.058Z,79.33
2023-05-24T21:09:28.450Z,83.37
2023-05-24T21:12:20.444Z,85.63
2023-05-24T21:14:55.928Z,81.30
2023-05-24T21:17:32.029Z,80.37
2023-05-24T21:20:07.902Z,88.27
2023-05-24T21:22:42.054Z,82.00
2023-05-24T21:25:17.366Z,84.87
2023-05-24T21:27:52.178Z,81.43
2023-05-24T21:30:27.669Z,77.27
2023-05-24T21:33:02.847Z,83.00
2023-05-24T21:35:39.440Z,81.73
2023-05-24T21:38:13.356Z,81.53
2023-05-24T21:40:48.585Z,76.90
2023-05-24T21:43:24.354Z,81.80
2023-05-24T21:45:58.593Z,80.03
2023-05-24T21:48:36.668Z,87.47
2023-05-24T21:51:09.921Z,87.77
2023-05-24T21:53:47.263Z,84.20
2023-05-24T21:56:20.772Z,88.20
2023-05-24T21:58:54.990Z,81.40
2023-05-24T22:01:29.811Z,83.87
2023-05-24T22:04:22.577Z,83.03
2023-05-24T22:07:00.002Z,90.00
2023-05-24T22:09:35.941Z,82.67
2023-05-24T22:12:13.814Z,84.67
2023-05-24T22:14:52.965Z,84.67
2023-05-24T22:17:32.155Z,82.73
2023-05-24T22:20:21.768Z,89.00
2023-05-24T22:23:03.479Z,87.00
2023-05-24T22:25:38.553Z,85.47
2023-05-24T22:28:13.884Z,85.50
2023-05-24T22:30:51.620Z,83.10
2023-05-24T22:33:26.895Z,93.30
2023-05-24T22:36:03.208Z,86.27
2023-05-24T22:38:39.953Z,87.77
2023-05-24T22:41:13.815Z,77.50
2023-05-24T22:43:53.955Z,80.50
2023-05-24T22:46:32.938Z,89.90
2023-05-24T22:49:14.598Z,80.03
2023-05-24T22:51:55.829Z,87.10
2023-05-24T22:54:30.128Z,77.23
2023-05-24T22:57:05.707Z,84.50
2023-05-24T22:59:44.590Z,81.77
2023-05-24T23:02:24.884Z,85.87
2023-05-24T23:05:08.902Z,83.10
2023-05-24T23:08:00.658Z,90.60
2023-05-24T23:10:42.132Z,80.97
2023-05-24T23:13:20.461Z,87.97
2023-05-24T23:15:56.389Z,90.07
2023-05-24T23:18:30.249Z,86.00
2023-05-24T23:21:11.646Z,87.87
2023-05-24T23:23:51.025Z,87.73
2023-05-24T23:26:26.382Z,90.10
2023-05-24T23:29:04.216Z,88.03
2023-05-24T23:31:46.437Z,81.27
2023-05-24T23:34:24.675Z,87.93
2023-05-24T23:37:00.149Z,91.03
2023-05-24T23:39:36.622Z,93.90
2023-05-24T23:42:11.748Z,89.27
2023-05-24T23:44:46.421Z,89.37
2023-05-24T23:47:22.003Z,84.53
2023-05-24T23:49:57.416Z,84.33
2023-05-24T23:52:33.483Z,93.60
2023-05-24T23:55:19.622Z,83.97
2023-05-24T23:57:53.630Z,71.07
